This site, now in its 15th season, is a labour of love and fun from one of Ottawa's most avid time trialists and number crunchers. It adheres to and is permitted by the laws of Canada, promotes the objectives of every bicycle club whose results are shown, and is donated free of charge by myself for your enjoyment and usage. If you would like results from series you ride in to be shown here, give me (celia@drmath.ca) a shout!


Index Page
ATT OTT WTT AATT CFCTT VVVTT
Help resultformat:
Case-sensitive

OBC Open TT Series - 2018-Sep-13 - 15km (Rockliffe Pkwy)

Ottawa Weather (18:00): Sunny. Temp.erature: 22.8C, Wind: ENE 8km/h, Humidex: 28, Relative humidity: 69%, Dew point: 17C, Pressure: 102.4kPa, Visibility: 24km.
Ottawa Weather (19:00): Clear. Temp.erature: 20.5C, Wind: ENE 9km/h, Humidex: 26, Relative humidity: 79%, Dew point: 17C, Pressure: 102.5kPa, Visibility: 24km.
Ottawa Weather (20:00): Clear. Temp.erature: 19.6C, Wind: ENE 10km/h, Humidex: 30, Relative humidity: 81%, Dew point: 16C, Pressure: 102.5kPa, Visibility: 24km.

Send photos with description (when/where/what) of yourself on or off of bike to celia@drmath.ca

 
 

BESTS?
 
Y 1 Gee, Derek  TRC 18:24 48.913 1/40 SEM 1/1 1.1630
Y 2 Fillion, Aaron  IND 19:00 47.368 2/40 VBM 1/8 1.0053
3 Rendall, Glen  RWR 19:50 45.378 3/40 VBM 2/8 0.9480
4 Tremblay, Patrick RDO 20:29 43.938 4/40 VBM 3/8 1.0147
5 Pérès, Erwan IND 20:35 43.725 5/40 VBM 4/8 0.9640
6 Tsilemos, Jim RWR 20:58 42.925 6/40 VBM 5/8 0.9461
7 Ross, Ron CLG 21:05 42.688 7/40 VCM 1/6 0.9788
8 Martins, Alex OBC 21:20 42.188 8/40 VBM 6/8 0.9180
9 Campbell, Colin  OBC 21:39 41.570 9/40 VCM 2/6 0.9456
10 Page, Graham OBC/NTF 21:46 41.348 10/40 VAM 1/3 0.9327
11 Manners, Mark OBC 22:10 40.602 11/40 VAM 2/3 0.9754
12 Corner, Doug  OBC 22:11 40.571 12/40 VDM 1/12 0.9469
13 Davis, Doug OBC 22:23 40.208 13/40 VCM 3/6 1.1255
14 Burge, Larry  OBC 22:27 40.089 14/40 VCM 4/6 0.9497
15 Smart, Adam OBC 22:28 40.059 15/40 VAM 3/3  
16 Mullington, Chris WQW 22:35 39.852 16/40 VDM 2/12 0.7888
17 Christie, Greg  OBC/RWR 22:37 39.794 17/40 VDM 3/12 1.0313
18 Budgell, Glen  OBC 22:38 39.764 18/40 VDM 4/12 0.8956
19 Posthuma, Hans  OBC 22:39 39.735 19/40 VDM 5/12 0.9956
Rivoche, Michael WQW 22:39 39.735 19/40 VDM 5/12 1.0022
21 Thompson, William OBC 22:45 39.560 21/40 VCM 5/6 0.9460
Y 22 Lavergne, Jazmine OBC 22:51 39.387 22/40 CAF 1/2 1.0354
23 Deschamps, Martin WQW 23:08 38.905 23/40 VBM 7/8 0.9324
24 Deavy, Carol  OBC 23:27 38.380 24/40 VCF 1/1 1.0215
25 Dorego, Jean-Louis OBC 23:36 38.136 25/40 VDM 7/12 0.9419
26 Boulanger, Gaetan  IND 23:49 37.789 26/40 VEM 1/3 1.0021
27 Markel, Dan OBC 24:23 36.910 27/40 VBM 8/8 1.0289
28 DeVidi, Robert  OBC 24:31 36.710 28/40 VCM 6/6 0.7903
29 Burdett, Avery  OBC 24:56 36.096 29/40 VEM 2/3 0.9900
30 Austen, Ian  OBC 25:12 35.714 30/40 VDM 8/12 1.0079
31 Hinz, Richard OBC 25:27 35.363 31/40 VDM 9/12 0.9785
32 Johnson, Byron  OBC 25:29 35.317 32/40 VDM 10/12  
33 Arsenault, Ariane CDO 25:31 35.271 33/40 CAF 2/2 0.8851
34 Shand, Peter OBC 26:05 34.505 34/40 VDM 11/12 0.9162
35 Moerman, Bram  OBC 26:15 34.286 35/40 VEM 3/3 0.7345
36 Tardif, Magalie OBC 26:16 34.264 36/40 JUF 1/2 1.0444
37 Gervais, Dominique OBC 26:30 33.962 37/40 JUF 2/2 0.8262
38 McInnis, Celia  OBC 26:47 33.603 38/40 VDF 1/2 0.9925
39 Monette, Gary WQW 27:19 32.947 39/40 VDM 12/12 0.9764
40 Drapeau, Blanche OBC 28:24 31.690 40/40 VDF 2/2 0.9329
 
Average Speed of all of the above 40 finishes (600km in 15:32:34):38.603
>>>Average of the Average Speeds for these 40 finishes38.981<<<
 

The number of data records shown above is 40
The server processing of your query took: 0 wallclock secs ( 0.11 usr + 0.01 sys = 0.12 CPU)

Thanks to our Helpers: Michel Bernier, Mark Manners, Alex McKnight, Peter Tregunno

     


Mar 30 (Good Friday)
May 1 (10km) May 3 May 8 (10km) May 10 May 15 (10km) May 17 May 22 (10km) May 24 May 29 (10km) May 31
Jun 5 Jun 5 Jun 7 Jun 12 Jun 12 Jun 14 Jun 17 (40km) Jun 19 Jun 19 Jun 21 Jun 26 Jun 26 Jun 28
Jul 3 Jul 3 Jul 5 Jul 8 (40km) Jul 10 Jul 10 Jul 12 Jul 17 Jul 17 Jul 19 Jul 24 Jul 24 Jul 26 Jul 31 Jul 31
Aug 2 Aug 5 (40km) Aug 7 Aug 7 Aug 9 Aug 14 Aug 14 Aug 16 Aug 21 Aug 21 Aug 23 Aug 28 Aug 28 (Invitational) Aug 30#1 (Eddie Merckx) Aug 30#2 (With Aero)
Sep 2 (40km) Sep 4 Sep 6 Sep 11
  Sep 13  
Sep 18

OTT Rankings
Best       Best by category
WTT Rankings for All Participants
5 Best Speeds (≥3 15km, ≤1 10km)     5 Best Speeds (≥3 15km, ≤1 10km) by category
OTT Best Three 15km Rankings
Overall     by category     age-Hcap Female   age-Hcap Male
Other years
TT Calculator All TT People All TT events
ABC Home VVV Home
CKAP GOLD MEDAL
Other Links

Note: OTT data from 2003 through 2006-Apr-14 and 2007-Apr-06-? and WTT from 2008-? is taken from the official OBC site.

Please send your comments and suggestions to: Celia McInnis
Copyright © 1998-2011 Celia McInnis. All rights reserved. Links are welcomed.